createdAt,value
2018-06-13T00:40:06.847Z,15.20
2018-06-13T00:49:21.695Z,13.60
2018-06-13T00:57:23.401Z,13.30
2018-06-13T01:00:29.458Z,13.20
2018-06-13T01:56:55.713Z,12.60
2018-06-13T01:59:52.957Z,12.50
2018-06-13T02:39:24.424Z,12.50
2018-06-13T05:23:06.576Z,12.60
2018-06-13T05:25:36.112Z,12.60
2018-06-13T05:28:04.812Z,13.00
2018-06-13T05:30:36.917Z,13.00
2018-06-13T05:33:12.006Z,13.00
2018-06-13T05:35:40.745Z,13.10
2018-06-13T05:38:09.978Z,13.10
2018-06-13T05:40:38.756Z,13.10
2018-06-13T05:43:27.240Z,13.10
2018-06-13T05:48:43.503Z,13.20
2018-06-13T05:51:24.636Z,13.30
2018-06-13T05:56:49.728Z,13.40
2018-06-13T05:59:18.425Z,13.40
2018-06-13T06:04:48.264Z,13.50
2018-06-13T06:07:24.061Z,13.60
2018-06-13T06:10:02.848Z,13.60
2018-06-13T06:12:54.896Z,13.60
2018-06-13T06:15:29.515Z,13.70
2018-06-13T06:17:58.007Z,13.70
2018-06-13T06:20:26.756Z,13.70
2018-06-13T06:40:00.466Z,14.10
2018-06-13T06:42:29.029Z,14.20
2018-06-13T06:44:57.523Z,14.20
2018-06-13T06:49:33.753Z,14.20
2018-06-13T06:52:03.566Z,14.20
2018-06-13T06:54:34.370Z,14.20
2018-06-13T06:57:36.976Z,14.10
2018-06-13T07:00:05.671Z,14.10
2018-06-13T07:02:34.459Z,14.10
2018-06-13T07:05:03.097Z,14.10
2018-06-13T07:07:32.271Z,14.20
2018-06-13T07:10:02.937Z,14.20
2018-06-13T07:35:41.843Z,14.50
2018-06-13T07:38:10.497Z,14.50
2018-06-13T07:40:39.005Z,14.60
2018-06-13T07:45:35.840Z,14.70
2018-06-13T07:48:04.351Z,14.70
2018-06-13T07:50:33.245Z,14.80
2018-06-13T08:10:00.344Z,15.20
2018-06-13T08:12:28.987Z,15.10
2018-06-13T08:14:57.518Z,15.10
2018-06-13T08:17:26.223Z,15.10
2018-06-13T08:19:54.750Z,15.00
2018-06-13T08:27:57.711Z,14.90
2018-06-13T08:30:26.380Z,14.90
2018-06-13T08:32:58.023Z,14.90
2018-06-13T08:35:27.409Z,14.90
2018-06-13T08:47:14.002Z,15.10
2018-06-13T08:49:43.015Z,15.20
2018-06-13T08:55:05.979Z,15.20
2018-06-13T08:57:38.481Z,15.30
2018-06-13T09:00:13.785Z,15.30
2018-06-13T09:02:42.614Z,15.30
2018-06-13T09:05:11.172Z,15.30
2018-06-13T09:07:39.688Z,15.30
2018-06-13T09:10:08.231Z,15.30
2018-06-13T09:12:36.775Z,15.30
2018-06-13T09:15:05.457Z,15.40
2018-06-13T09:17:36.972Z,15.40
2018-06-13T09:20:05.580Z,15.50
2018-06-13T09:22:34.331Z,15.50
2018-06-13T09:25:03.011Z,15.50
2018-06-13T09:27:43.481Z,15.50
2018-06-13T09:30:37.796Z,15.50
2018-06-13T09:33:16.631Z,15.40
2018-06-13T09:35:45.794Z,15.20
2018-06-13T09:38:14.380Z,15.10
2018-06-13T09:41:03.632Z,15.10
2018-06-13T09:43:32.233Z,15.10
2018-06-13T09:46:03.560Z,15.10
2018-06-13T09:48:29.556Z,15.10
2018-06-13T09:50:58.056Z,15.10
2018-06-13T09:53:26.752Z,15.10
2018-06-13T09:55:55.287Z,15.10
2018-06-13T09:58:23.902Z,15.20
2018-06-13T10:03:43.055Z,15.20
2018-06-13T10:06:11.676Z,15.30
2018-06-13T10:08:47.083Z,15.30
2018-06-13T10:11:15.574Z,15.40
2018-06-13T10:13:43.960Z,15.40
2018-06-13T10:16:12.564Z,15.50
2018-06-13T10:38:47.475Z,15.50
2018-06-13T12:05:52.871Z,16.60
2018-06-13T12:08:22.551Z,16.70
2018-06-13T12:10:51.118Z,16.80
2018-06-13T12:13:20.029Z,17.00
2018-06-13T12:15:48.793Z,17.10
2018-06-13T12:18:17.351Z,17.10
2018-06-13T12:20:46.033Z,17.20
2018-06-13T12:24:30.750Z,17.20
2018-06-13T12:44:39.257Z,17.10
2018-06-13T12:47:07.927Z,17.20
2018-06-13T12:49:36.538Z,17.30
2018-06-13T12:52:05.078Z,17.30
2018-06-13T12:54:33.740Z,17.30
2018-06-13T12:57:02.434Z,17.30
2018-06-13T12:59:30.999Z,17.40
2018-06-13T13:01:59.931Z,17.50
2018-06-13T13:21:32.481Z,17.20
2018-06-13T13:24:01.151Z,17.10
2018-06-13T13:26:29.663Z,17.00
2018-06-13T13:28:58.375Z,16.90
2018-06-13T13:31:26.987Z,16.80
2018-06-13T13:33:55.635Z,16.80
2018-06-13T13:36:24.255Z,16.80
2018-06-13T13:55:59.439Z,17.40
2018-06-13T13:58:28.003Z,17.50
2018-06-13T14:00:56.970Z,17.60
2018-06-13T14:03:25.557Z,17.70
2018-06-13T14:05:54.811Z,17.80
2018-06-13T14:11:19.300Z,17.90
2018-06-13T14:13:48.035Z,17.80
2018-06-13T14:16:20.451Z,17.70
2018-06-13T14:34:15.236Z,17.50
2018-06-13T14:36:43.915Z,17.50
2018-06-13T14:39:12.931Z,17.50
2018-06-13T14:41:41.423Z,17.50
2018-06-13T14:44:09.972Z,17.70
2018-06-13T14:46:38.563Z,18.00
2018-06-13T14:49:07.160Z,18.30
2018-06-13T14:51:35.776Z,18.50
2018-06-13T14:54:04.590Z,18.60
2018-06-13T14:59:42.389Z,18.50
2018-06-13T15:02:10.966Z,18.30
2018-06-13T15:04:39.560Z,18.20
2018-06-13T15:07:08.345Z,18.20
2018-06-13T15:09:37.049Z,18.20
2018-06-13T15:12:06.041Z,18.30
2018-06-13T15:14:34.826Z,18.40
2018-06-13T15:17:03.536Z,18.50
2018-06-13T15:19:33.335Z,18.70
2018-06-13T15:27:53.044Z,19.20
2018-06-13T15:30:21.703Z,19.20
2018-06-13T15:32:50.282Z,19.10
2018-06-13T15:35:18.832Z,19.10
2018-06-13T15:37:47.316Z,19.00
2018-06-13T15:40:15.942Z,18.90
2018-06-13T15:48:33.563Z,18.60
2018-06-13T15:51:02.432Z,18.50
2018-06-13T15:53:30.960Z,18.40
2018-06-13T15:55:59.665Z,18.30
2018-06-13T15:58:28.188Z,18.30
2018-06-13T16:00:56.952Z,18.20
2018-06-13T16:03:25.736Z,18.20
2018-06-13T16:05:55.892Z,18.20
2018-06-13T16:08:24.610Z,18.20
2018-06-13T16:10:53.489Z,18.30
2018-06-13T16:13:22.209Z,18.30
2018-06-13T16:15:50.887Z,18.30
2018-06-13T16:21:10.488Z,18.40
2018-06-13T16:23:39.437Z,18.30
2018-06-13T16:26:12.500Z,18.30
2018-06-13T16:28:41.408Z,18.20
2018-06-13T16:31:11.881Z,18.10
2018-06-13T16:33:40.599Z,18.00
2018-06-13T16:36:09.282Z,17.90
2018-06-13T16:38:38.171Z,17.90
2018-06-13T16:41:06.989Z,17.90
2018-06-13T16:43:35.552Z,17.90
2018-06-13T16:52:31.993Z,17.70
2018-06-13T16:55:20.167Z,17.80
2018-06-13T16:57:51.980Z,17.80
2018-06-13T17:00:23.768Z,17.80
2018-06-13T17:06:00.431Z,17.80
2018-06-13T17:08:29.021Z,17.80
2018-06-13T17:10:57.914Z,17.80
2018-06-13T17:13:31.236Z,17.70
2018-06-13T17:16:00.296Z,17.70
2018-06-13T17:44:28.382Z,17.60
2018-06-13T17:46:57.354Z,17.60
2018-06-13T17:49:27.012Z,17.50
2018-06-13T17:52:00.895Z,17.40
2018-06-13T17:54:42.091Z,17.30
2018-06-13T18:14:31.435Z,17.10
2018-06-13T18:16:59.875Z,17.10
2018-06-13T18:19:28.415Z,17.10
2018-06-13T18:21:56.776Z,17.10
2018-06-13T18:24:25.247Z,17.10
2018-06-13T18:26:53.825Z,17.10
2018-06-13T18:29:22.496Z,17.00
2018-06-13T18:31:50.925Z,16.90
2018-06-13T18:34:19.871Z,16.90
2018-06-13T18:36:48.265Z,16.90
2018-06-13T18:39:16.689Z,16.90
2018-06-13T18:41:45.072Z,16.80
2018-06-13T18:44:13.597Z,16.80
2018-06-13T18:46:42.045Z,16.80
2018-06-13T18:52:24.408Z,16.70
2018-06-13T18:54:52.987Z,16.60
2018-06-13T18:57:23.745Z,16.60
2018-06-13T18:59:52.276Z,16.50
2018-06-13T19:02:30.950Z,16.50
2018-06-13T19:13:10.508Z,16.40
2018-06-13T19:15:39.007Z,16.40
2018-06-13T19:26:53.682Z,15.80
2018-06-13T19:29:23.769Z,15.70
2018-06-13T19:31:53.146Z,15.70
2018-06-13T19:34:26.038Z,15.60
2018-06-13T19:39:55.702Z,15.50
2018-06-13T19:54:04.785Z,15.30
2018-06-13T19:56:38.632Z,15.30
2018-06-13T22:02:39.349Z,12.20
2018-06-13T22:05:19.920Z,12.20
2018-06-13T22:08:41.521Z,12.20
2018-06-13T22:11:16.912Z,12.20
2018-06-13T22:13:55.075Z,12.20
2018-06-13T22:16:26.271Z,12.10
2018-06-13T22:19:00.334Z,12.10
2018-06-13T22:21:56.424Z,12.00
2018-06-13T22:27:41.291Z,12.00
2018-06-13T22:30:19.201Z,11.90
2018-06-13T22:52:56.091Z,11.60
2018-06-13T22:55:36.858Z,11.50
2018-06-13T22:58:16.218Z,11.50
2018-06-13T23:01:14.954Z,11.40
2018-06-13T23:03:57.244Z,11.40
2018-06-13T23:06:35.740Z,11.30
2018-06-13T23:09:18.270Z,11.30
2018-06-13T23:11:57.393Z,11.30
2018-06-13T23:14:29.229Z,11.20
2018-06-13T23:17:03.540Z,11.20
2018-06-13T23:19:42.510Z,11.20
2018-06-13T23:22:17.819Z,11.10
2018-06-13T23:27:46.330Z,11.10
2018-06-13T23:30:16.068Z,11.00
2018-06-13T23:32:46.818Z,11.00
2018-06-13T23:35:19.806Z,11.00
2018-06-13T23:37:52.733Z,11.00
2018-06-13T23:40:26.642Z,10.90
2018-06-13T23:43:10.463Z,10.90
